createdAt,value
2023-03-12T00:03:15.212Z,99653.78
2023-03-12T00:09:10.975Z,99645.34
2023-03-12T00:11:56.196Z,99645.33
2023-03-12T00:14:41.253Z,99640.53
2023-03-12T00:20:19.399Z,99636.62
2023-03-12T00:23:05.551Z,99636.64
2023-03-12T00:25:50.765Z,99634.94
2023-03-12T00:28:37.101Z,99632.39
2023-03-12T00:31:32.376Z,99633.07
2023-03-12T00:40:49.340Z,99646.39
2023-03-12T00:43:35.359Z,99640.03
2023-03-12T00:46:21.599Z,99637.62
2023-03-12T00:49:06.857Z,99636.26
2023-03-12T00:55:08.790Z,99628.72
2023-03-12T00:58:26.748Z,99633.91
2023-03-12T01:01:12.437Z,99631.71
2023-03-12T01:13:44.877Z,99643.56
2023-03-12T01:16:32.881Z,99638.08
2023-03-12T01:19:18.585Z,99647.10
2023-03-12T01:22:04.342Z,99649.33
2023-03-12T01:24:49.877Z,99646.57
2023-03-12T01:27:35.595Z,99643.85
2023-03-12T01:30:20.672Z,99645.75
2023-03-12T01:33:05.866Z,99642.32
2023-03-12T01:35:51.149Z,99641.83
2023-03-12T01:38:36.440Z,99638.23
2023-03-12T01:41:24.517Z,99637.91
2023-03-12T01:44:14.020Z,99638.81
2023-03-12T01:46:59.354Z,99636.61
2023-03-12T01:53:12.502Z,99640.52
2023-03-12T01:56:00.647Z,99640.17
2023-03-12T01:58:54.182Z,99643.44
2023-03-12T02:01:41.167Z,99643.45
2023-03-12T02:04:28.493Z,99645.35
2023-03-12T02:07:15.973Z,99646.71
2023-03-12T02:10:03.233Z,99650.02
2023-03-12T02:12:48.156Z,99650.88
2023-03-12T02:28:02.629Z,99659.57
2023-03-12T02:30:50.969Z,99663.33
2023-03-12T02:33:36.276Z,99662.63
2023-03-12T02:46:09.154Z,99671.39
2023-03-12T02:58:40.235Z,99667.84
2023-03-12T03:01:27.717Z,99656.20
2023-03-12T03:04:13.254Z,99670.75
2023-03-12T03:10:40.172Z,99675.66
2023-03-12T03:16:47.996Z,99676.61
2023-03-12T03:29:17.379Z,99684.92
2023-03-12T03:34:55.191Z,99702.30
2023-03-12T03:37:40.740Z,99703.69
2023-03-12T03:40:25.860Z,99710.92
2023-03-12T03:46:20.240Z,99717.81
2023-03-12T04:05:05.854Z,99715.98
2023-03-12T04:07:54.565Z,99718.91
2023-03-12T04:13:33.534Z,99717.38
2023-03-12T04:28:56.647Z,99740.83
2023-03-12T04:38:13.817Z,99743.54
2023-03-12T04:43:51.635Z,99749.09
2023-03-12T04:46:37.069Z,99749.73
2023-03-12T04:49:22.345Z,99752.29
2023-03-12T04:58:27.868Z,99767.41
2023-03-12T05:01:23.295Z,99768.11
2023-03-12T05:04:08.774Z,99772.61
2023-03-12T05:09:33.112Z,99780.90
2023-03-12T05:22:18.271Z,99784.54
2023-03-12T05:28:12.210Z,99783.52
2023-03-12T05:30:59.554Z,99781.48
2023-03-12T05:36:41.216Z,99794.98
2023-03-12T05:39:27.218Z,99797.52
2023-03-12T05:55:21.048Z,99799.22
2023-03-12T05:58:07.618Z,99805.91
2023-03-12T06:00:53.035Z,99808.65
2023-03-12T06:06:20.010Z,99812.91
2023-03-12T06:09:06.211Z,99815.30
2023-03-12T06:11:51.605Z,99822.52
2023-03-12T06:17:31.343Z,99834.52
2023-03-12T06:20:42.647Z,99832.58
2023-03-12T06:23:27.929Z,99840.63
2023-03-12T06:26:22.247Z,99841.61
2023-03-12T06:29:07.823Z,99842.23
2023-03-12T06:31:53.444Z,99844.10
2023-03-12T06:40:59.257Z,99855.96
2023-03-12T06:43:45.061Z,99854.53
2023-03-12T06:46:30.045Z,99854.28
2023-03-12T06:49:14.899Z,99855.09
2023-03-12T06:52:26.833Z,99858.45
2023-03-12T07:01:10.874Z,99872.34
2023-03-12T07:04:52.072Z,99875.39
2023-03-12T07:08:03.518Z,99876.01
2023-03-12T07:23:02.424Z,99884.58
2023-03-12T07:25:48.324Z,99891.02
2023-03-12T07:28:33.652Z,99895.50
2023-03-12T07:31:19.158Z,99900.07
2023-03-12T07:34:30.298Z,99898.92
2023-03-12T07:43:13.322Z,99910.55
2023-03-12T07:49:26.363Z,99908.54
2023-03-12T07:52:15.407Z,99909.91
2023-03-12T07:55:32.569Z,99910.08
2023-03-12T07:58:19.776Z,99911.84
2023-03-12T08:01:06.134Z,99910.12
2023-03-12T08:03:53.663Z,99910.36
2023-03-12T08:06:42.123Z,99910.74
2023-03-12T08:09:27.870Z,99909.61
2023-03-12T08:12:12.717Z,99912.59
2023-03-12T08:14:57.863Z,99911.98
2023-03-12T08:17:43.200Z,99914.89
2023-03-12T08:20:28.744Z,99917.79
2023-03-12T08:26:27.455Z,99929.25
2023-03-12T08:32:04.140Z,99928.96
2023-03-12T08:34:52.048Z,99925.73
2023-03-12T08:50:16.445Z,99936.25
2023-03-12T08:53:01.422Z,99944.17
2023-03-12T09:02:46.844Z,99948.73
2023-03-12T09:05:32.172Z,99946.71
2023-03-12T09:11:18.355Z,99944.18
2023-03-12T09:20:25.585Z,99943.72
2023-03-12T09:26:20.292Z,99944.61
2023-03-12T09:32:06.951Z,99949.27
2023-03-12T09:37:53.843Z,99939.12
2023-03-12T09:46:58.292Z,99942.66
2023-03-12T09:49:51.057Z,99934.89
2023-03-12T09:52:59.240Z,99936.06
2023-03-12T09:59:04.057Z,99936.42
2023-03-12T10:02:06.077Z,99937.70
2023-03-12T10:05:11.283Z,99939.70
2023-03-12T10:08:07.605Z,99929.80
2023-03-12T10:11:08.364Z,99927.88
2023-03-12T10:17:31.842Z,99935.58
2023-03-12T10:20:35.451Z,99937.17
2023-03-12T10:23:29.691Z,99942.04
2023-03-12T10:26:40.787Z,99937.63
2023-03-12T10:29:31.816Z,99935.16
2023-03-12T10:32:27.440Z,99936.20
2023-03-12T10:41:42.389Z,99938.76
2023-03-12T10:44:28.890Z,99939.65
2023-03-12T10:47:35.248Z,99945.02
2023-03-12T10:53:23.925Z,99943.96
2023-03-12T10:56:14.880Z,99935.23
2023-03-12T10:59:20.040Z,99939.37
2023-03-12T11:05:48.417Z,99933.93
2023-03-12T11:08:35.741Z,99935.64
2023-03-12T11:12:00.707Z,99925.30
2023-03-12T11:14:46.304Z,99916.61
2023-03-12T11:17:32.471Z,99919.25
2023-03-12T11:33:32.845Z,99912.47
2023-03-12T11:36:44.433Z,99900.27
2023-03-12T11:42:44.330Z,99910.32
2023-03-12T11:45:44.690Z,99902.86
2023-03-12T11:58:53.420Z,99889.97
2023-03-12T12:02:12.407Z,99890.38
2023-03-12T12:11:33.974Z,99893.31
2023-03-12T12:31:29.664Z,99880.10
2023-03-12T12:44:14.358Z,99871.98
2023-03-12T12:47:04.851Z,99865.85
2023-03-12T12:49:57.594Z,99866.09
2023-03-12T13:01:27.995Z,99862.55
2023-03-12T13:07:12.033Z,99851.81
2023-03-12T13:09:59.648Z,99859.08
2023-03-12T13:15:39.596Z,99857.79
2023-03-12T13:27:39.101Z,99834.17
2023-03-12T13:40:01.531Z,99838.92
2023-03-12T13:43:06.803Z,99843.00
2023-03-12T13:48:48.547Z,99846.75
2023-03-12T13:51:43.579Z,99845.10
2023-03-12T13:54:34.254Z,99845.75
2023-03-12T13:57:39.619Z,99847.09
2023-03-12T14:00:31.045Z,99843.69
2023-03-12T14:03:27.247Z,99844.85
2023-03-12T14:09:40.652Z,99835.89
2023-03-12T14:13:14.265Z,99835.94
2023-03-12T14:16:14.667Z,99840.70
2023-03-12T14:19:38.627Z,99836.83
2023-03-12T14:29:00.323Z,99824.30
2023-03-12T14:31:48.039Z,99819.34
2023-03-12T14:34:40.746Z,99826.45
2023-03-12T14:37:35.880Z,99830.05
2023-03-12T14:46:30.454Z,99814.94
2023-03-12T14:49:24.789Z,99812.33
2023-03-12T14:52:19.917Z,99818.44
2023-03-12T14:55:13.450Z,99821.89
2023-03-12T14:58:14.984Z,99820.86
2023-03-12T15:01:49.092Z,99812.92
2023-03-12T15:04:35.354Z,99805.63
2023-03-12T15:20:04.855Z,99800.32
2023-03-12T15:26:15.431Z,99808.96
2023-03-12T15:29:14.681Z,99806.45
2023-03-12T15:32:00.532Z,99804.75
2023-03-12T15:34:47.447Z,99801.40
2023-03-12T15:37:37.551Z,99796.89
2023-03-12T15:43:20.442Z,99793.31
2023-03-12T15:49:00.733Z,99797.70
2023-03-12T15:55:13.525Z,99801.30
2023-03-12T15:57:59.293Z,99798.17
2023-03-12T16:00:45.293Z,99793.84
2023-03-12T16:06:48.561Z,99763.33
2023-03-12T16:09:34.241Z,99745.03
2023-03-12T16:12:19.484Z,99743.64
2023-03-12T16:15:05.349Z,99747.23
2023-03-12T16:17:50.643Z,99739.36
2023-03-12T16:20:35.436Z,99737.63
2023-03-12T16:23:20.442Z,99755.54
2023-03-12T16:26:06.492Z,99762.88
2023-03-12T16:28:51.887Z,99755.11
2023-03-12T16:31:37.313Z,99730.02
2023-03-12T16:34:22.964Z,99736.45
2023-03-12T16:43:34.960Z,99730.02
2023-03-12T16:46:21.550Z,99732.33
2023-03-12T16:49:55.636Z,99727.37
2023-03-12T17:01:25.358Z,99752.55
2023-03-12T17:04:11.418Z,99748.56
2023-03-12T17:06:56.692Z,99743.22
2023-03-12T17:12:38.322Z,99740.14
2023-03-12T17:15:33.354Z,99734.13
2023-03-12T17:18:19.311Z,99749.04
2023-03-12T17:31:28.572Z,99754.06
2023-03-12T17:34:15.811Z,99753.71
2023-03-12T17:37:04.618Z,99746.83
2023-03-12T17:39:49.646Z,99743.58
2023-03-12T17:42:35.084Z,99751.38
2023-03-12T17:45:20.595Z,99759.89
2023-03-12T17:51:21.754Z,99770.58
2023-03-12T17:54:09.332Z,99770.96
2023-03-12T17:56:55.048Z,99769.59
2023-03-12T18:02:44.973Z,99764.70
2023-03-12T18:05:29.973Z,99757.34
2023-03-12T18:11:13.020Z,99742.87
2023-03-12T18:13:58.708Z,99735.59
2023-03-12T18:16:44.117Z,99726.70
2023-03-12T18:19:30.016Z,99718.76
2023-03-12T18:25:09.130Z,99719.98
2023-03-12T18:27:55.814Z,99720.02
2023-03-12T18:30:45.175Z,99720.58
2023-03-12T18:36:32.600Z,99727.41
2023-03-12T18:39:18.235Z,99724.05
2023-03-12T18:48:44.066Z,99714.41
2023-03-12T18:54:38.824Z,99706.41
2023-03-12T18:57:24.307Z,99699.47
2023-03-12T19:00:14.481Z,99694.20
2023-03-12T19:09:16.714Z,99667.23
2023-03-12T19:14:45.041Z,99663.00
2023-03-12T19:17:31.754Z,99661.54
2023-03-12T19:20:18.304Z,99657.25
2023-03-12T19:23:03.970Z,99662.63
2023-03-12T19:25:49.405Z,99658.02
2023-03-12T19:28:38.415Z,99664.77
2023-03-12T19:31:24.659Z,99667.77
2023-03-12T19:34:09.527Z,99662.27
2023-03-12T19:36:54.597Z,99651.56
2023-03-12T19:39:40.003Z,99643.30
2023-03-12T19:42:24.904Z,99638.98
2023-03-12T19:48:03.537Z,99637.79
2023-03-12T19:50:49.077Z,99634.87
2023-03-12T19:53:34.598Z,99639.07
2023-03-12T19:56:20.445Z,99643.99
2023-03-12T20:02:22.280Z,99631.42
2023-03-12T20:08:16.736Z,99639.50
2023-03-12T20:11:07.991Z,99640.77
2023-03-12T20:13:53.179Z,99643.39
2023-03-12T20:19:38.696Z,99643.30
2023-03-12T20:22:27.022Z,99645.23
2023-03-12T20:25:12.273Z,99644.86
2023-03-12T20:27:57.927Z,99644.73
2023-03-12T20:36:57.560Z,99654.70
2023-03-12T20:39:43.447Z,99660.59
2023-03-12T20:43:04.739Z,99657.61
2023-03-12T20:45:50.883Z,99659.40
2023-03-12T20:51:38.397Z,99657.21
2023-03-12T20:54:28.393Z,99642.60
2023-03-12T20:57:13.537Z,99650.05
2023-03-12T20:59:59.465Z,99653.51
2023-03-12T21:02:44.881Z,99650.70
2023-03-12T21:08:19.256Z,99653.54
2023-03-12T21:14:18.832Z,99639.27
2023-03-12T21:20:09.726Z,99637.25
2023-03-12T21:22:55.170Z,99639.94
2023-03-12T21:25:41.501Z,99637.91
2023-03-12T21:28:27.554Z,99641.42
2023-03-12T21:31:15.149Z,99639.65
2023-03-12T21:34:00.495Z,99635.02
2023-03-12T21:36:46.038Z,99637.55
2023-03-12T21:39:31.034Z,99631.66
2023-03-12T21:42:15.882Z,99626.61
2023-03-12T21:45:00.872Z,99621.96
2023-03-12T21:47:45.817Z,99617.99
2023-03-12T21:50:30.767Z,99619.23
2023-03-12T21:53:23.584Z,99623.77
2023-03-12T21:56:10.195Z,99627.77
2023-03-12T21:58:58.227Z,99621.21
2023-03-12T22:05:07.654Z,99622.79
2023-03-12T22:07:53.897Z,99622.42
2023-03-12T22:10:38.939Z,99623.84
2023-03-12T22:13:23.911Z,99623.49
2023-03-12T22:16:11.580Z,99616.79
2023-03-12T22:18:56.924Z,99611.48
2023-03-12T22:21:42.446Z,99605.13
2023-03-12T22:24:27.807Z,99609.88
2023-03-12T22:27:12.966Z,99607.13
2023-03-12T22:29:57.914Z,99598.17
2023-03-12T22:32:43.075Z,99591.77
2023-03-12T22:35:27.963Z,99593.08
2023-03-12T22:38:13.134Z,99595.05
2023-03-12T22:40:58.457Z,99593.06
2023-03-12T22:43:44.821Z,99589.67
2023-03-12T22:49:41.323Z,99582.20
2023-03-12T22:52:27.637Z,99577.02
2023-03-12T22:55:12.944Z,99571.90
2023-03-12T22:57:58.403Z,99573.52
2023-03-12T23:00:43.730Z,99574.96
2023-03-12T23:03:30.915Z,99575.23
2023-03-12T23:09:19.032Z,99569.42
2023-03-12T23:15:38.827Z,99563.60
2023-03-12T23:18:25.951Z,99555.79
2023-03-12T23:21:15.698Z,99551.12
2023-03-12T23:30:31.358Z,99536.98
2023-03-12T23:33:16.433Z,99538.72
2023-03-12T23:36:14.354Z,99536.05
2023-03-12T23:39:00.031Z,99522.65
2023-03-12T23:41:45.531Z,99518.02
2023-03-12T23:44:32.610Z,99513.52
2023-03-12T23:47:18.752Z,99513.61
2023-03-12T23:50:04.790Z,99517.27
2023-03-12T23:58:54.721Z,99525.25
